createdAt,value
2022-11-17T00:00:27.578Z,4.02
2022-11-17T00:03:28.892Z,3.99
2022-11-17T00:06:30.253Z,3.97
2022-11-17T00:09:31.568Z,4.00
2022-11-17T00:12:33.331Z,4.00
2022-11-17T00:15:34.710Z,4.02
2022-11-17T00:18:36.984Z,4.01
2022-11-17T00:21:38.314Z,4.04
2022-11-17T00:24:39.750Z,4.04
2022-11-17T00:27:41.287Z,4.07
2022-11-17T00:30:44.016Z,4.07
2022-11-17T00:33:45.470Z,4.06
2022-11-17T00:36:52.403Z,4.06
2022-11-17T00:39:59.298Z,4.05
2022-11-17T00:43:01.986Z,4.04
2022-11-17T00:46:03.375Z,4.05
2022-11-17T00:49:05.942Z,4.07
2022-11-17T00:52:07.297Z,4.02
2022-11-17T00:55:08.790Z,4.05
2022-11-17T00:58:10.151Z,4.04
2022-11-17T01:01:12.213Z,4.04
2022-11-17T01:04:14.788Z,4.01
2022-11-17T01:07:16.135Z,4.01
2022-11-17T01:10:17.624Z,4.02
2022-11-17T01:13:19.136Z,4.02
2022-11-17T01:16:20.922Z,4.00
2022-11-17T01:19:23.648Z,4.01
2022-11-17T01:22:24.998Z,4.00
2022-11-17T01:25:26.372Z,4.01
2022-11-17T01:28:27.710Z,3.99
2022-11-17T01:31:37.717Z,4.00
2022-11-17T01:34:39.085Z,3.97
2022-11-17T01:37:40.411Z,3.97
2022-11-17T01:40:41.758Z,3.97
2022-11-17T01:43:46.083Z,3.95
2022-11-17T01:46:48.314Z,3.95
2022-11-17T01:49:54.473Z,3.93
2022-11-17T01:52:59.191Z,3.89
2022-11-17T01:56:06.503Z,3.86
2022-11-17T01:59:16.078Z,3.86
2022-11-17T02:02:19.366Z,3.83
2022-11-17T02:05:52.359Z,3.81
2022-11-17T02:08:54.984Z,3.82
2022-11-17T02:11:58.638Z,3.82
2022-11-17T02:15:00.842Z,3.82
2022-11-17T02:18:02.732Z,3.80
2022-11-17T02:21:29.399Z,3.77
2022-11-17T02:24:50.850Z,3.78
2022-11-17T02:28:06.462Z,3.75
2022-11-17T02:31:45.538Z,3.75
2022-11-17T02:35:06.035Z,3.70
2022-11-17T02:38:16.396Z,3.70
2022-11-17T02:41:32.663Z,3.67
2022-11-17T02:44:59.927Z,3.63
2022-11-17T02:48:05.226Z,3.64
2022-11-17T02:51:11.979Z,3.64
2022-11-17T02:54:14.303Z,3.61
2022-11-17T02:57:37.450Z,3.57
2022-11-17T03:00:49.360Z,3.57
2022-11-17T03:04:08.231Z,3.56
2022-11-17T03:07:41.814Z,3.55
2022-11-17T03:11:01.367Z,3.55
2022-11-17T03:14:20.926Z,3.52
2022-11-17T03:17:30.402Z,3.52
2022-11-17T03:20:53.603Z,3.50
2022-11-17T03:24:09.163Z,3.46
2022-11-17T03:27:19.159Z,3.46
2022-11-17T03:30:20.599Z,3.48
2022-11-17T03:33:24.551Z,3.49
2022-11-17T03:36:31.797Z,3.45
2022-11-17T03:39:36.295Z,3.44
2022-11-17T03:42:41.808Z,3.45
2022-11-17T03:45:49.167Z,3.43
2022-11-17T03:48:55.440Z,3.42
2022-11-17T03:51:57.619Z,3.43
2022-11-17T03:54:59.035Z,3.39
2022-11-17T03:58:07.325Z,3.37
2022-11-17T04:01:08.864Z,3.35
2022-11-17T04:04:18.711Z,3.34
2022-11-17T04:07:20.162Z,3.31
2022-11-17T04:10:23.853Z,3.30
2022-11-17T04:13:25.191Z,3.29
2022-11-17T04:16:26.673Z,3.25
2022-11-17T04:19:28.015Z,3.23
2022-11-17T04:22:29.373Z,3.22
2022-11-17T04:25:30.704Z,3.17
2022-11-17T04:28:34.642Z,3.18
2022-11-17T04:31:36.111Z,3.16
2022-11-17T04:34:37.442Z,3.15
2022-11-17T04:37:38.763Z,3.17
2022-11-17T04:40:40.098Z,3.14
2022-11-17T04:43:41.406Z,3.14
2022-11-17T04:46:44.370Z,3.13
2022-11-17T04:49:45.694Z,3.12
2022-11-17T04:52:47.039Z,3.14
2022-11-17T04:55:48.421Z,3.11
2022-11-17T04:58:50.334Z,3.10
2022-11-17T05:01:51.894Z,3.09
2022-11-17T05:04:53.276Z,3.07
2022-11-17T05:07:54.627Z,3.05
2022-11-17T05:10:57.861Z,3.06
2022-11-17T05:14:00.166Z,3.02
2022-11-17T05:17:08.399Z,3.01
2022-11-17T05:20:11.028Z,3.00
2022-11-17T05:23:12.367Z,3.00
2022-11-17T05:26:13.707Z,3.02
2022-11-17T05:29:17.400Z,2.97
2022-11-17T05:32:18.852Z,2.97
2022-11-17T05:35:20.210Z,2.96
2022-11-17T05:38:21.862Z,2.96
2022-11-17T05:41:24.216Z,2.99
2022-11-17T05:44:25.617Z,2.98
2022-11-17T05:47:27.043Z,2.96
2022-11-17T05:50:28.414Z,2.94
2022-11-17T05:53:36.008Z,2.95
2022-11-17T05:56:49.571Z,2.93
2022-11-17T05:59:57.406Z,2.93
2022-11-17T06:03:02.636Z,2.92
2022-11-17T06:06:04.179Z,2.87
2022-11-17T06:09:05.523Z,2.87
2022-11-17T06:12:07.170Z,2.89
2022-11-17T06:15:09.011Z,2.87
2022-11-17T06:18:17.443Z,2.86
2022-11-17T06:21:18.867Z,2.85
2022-11-17T06:24:20.502Z,2.82
2022-11-17T06:27:22.425Z,2.80
2022-11-17T06:30:23.855Z,2.82
2022-11-17T06:33:29.097Z,2.80
2022-11-17T06:36:30.877Z,2.83
2022-11-17T06:39:32.221Z,2.79
2022-11-17T06:42:33.571Z,2.80
2022-11-17T06:45:37.732Z,2.80
2022-11-17T06:48:39.303Z,2.77
2022-11-17T06:51:44.896Z,2.79
2022-11-17T06:54:46.633Z,2.78
2022-11-17T06:57:53.205Z,2.76
2022-11-17T07:01:04.628Z,2.77
2022-11-17T07:04:06.019Z,2.75
2022-11-17T07:07:07.447Z,2.78
2022-11-17T07:10:09.485Z,2.77
2022-11-17T07:13:10.855Z,2.77
2022-11-17T07:16:23.267Z,2.77
2022-11-17T07:19:25.299Z,2.74
2022-11-17T07:22:26.658Z,2.75
2022-11-17T07:25:27.995Z,2.75
2022-11-17T07:28:29.691Z,2.76
2022-11-17T07:31:31.042Z,2.73
2022-11-17T07:34:32.361Z,2.75
2022-11-17T07:37:33.715Z,2.75
2022-11-17T07:40:35.086Z,2.75
2022-11-17T07:43:36.606Z,2.75
2022-11-17T07:46:38.024Z,2.74
2022-11-17T07:49:39.360Z,2.73
2022-11-17T07:52:41.691Z,2.72
2022-11-17T07:55:43.212Z,2.74
2022-11-17T07:58:44.532Z,2.73
2022-11-17T08:01:45.856Z,2.72
2022-11-17T08:04:47.216Z,2.74
2022-11-17T08:07:55.928Z,2.71
2022-11-17T08:11:04.325Z,2.71
2022-11-17T08:14:05.775Z,2.71
2022-11-17T08:17:07.236Z,2.69
2022-11-17T08:20:09.000Z,2.73
2022-11-17T08:23:10.390Z,2.75
2022-11-17T08:26:11.771Z,2.71
2022-11-17T08:29:13.350Z,2.73
2022-11-17T08:32:14.729Z,2.70
2022-11-17T08:35:16.542Z,2.70
2022-11-17T08:38:17.931Z,2.73
2022-11-17T08:41:19.308Z,2.73
2022-11-17T08:44:20.689Z,2.70
2022-11-17T08:47:22.076Z,2.75
2022-11-17T08:50:23.648Z,2.75
2022-11-17T08:53:25.012Z,2.75
2022-11-17T08:56:26.419Z,2.75
2022-11-17T08:59:27.832Z,2.73
2022-11-17T09:02:29.220Z,2.73
2022-11-17T09:05:30.668Z,2.77
2022-11-17T09:08:55.941Z,2.77
2022-11-17T09:11:53.507Z,2.77
2022-11-17T09:14:54.897Z,2.76
2022-11-17T09:17:56.217Z,2.78
2022-11-17T09:21:01.828Z,2.70
2022-11-17T09:24:03.452Z,2.71
2022-11-17T09:27:04.896Z,2.71
2022-11-17T09:30:07.217Z,2.72
2022-11-17T09:33:08.605Z,2.77
2022-11-17T09:36:11.269Z,2.79
2022-11-17T09:39:12.673Z,2.81
2022-11-17T09:42:22.102Z,2.85
2022-11-17T09:45:34.007Z,2.83
2022-11-17T09:48:42.264Z,2.88
2022-11-17T09:51:47.070Z,2.89
2022-11-17T09:54:53.386Z,2.90
2022-11-17T09:58:13.098Z,2.89
2022-11-17T10:01:19.784Z,2.85
2022-11-17T10:04:21.311Z,2.80
2022-11-17T10:07:23.113Z,2.77
2022-11-17T10:10:37.079Z,2.73
2022-11-17T10:13:38.731Z,2.70
2022-11-17T10:16:49.981Z,2.62
2022-11-17T10:19:51.334Z,2.55
2022-11-17T10:22:54.105Z,2.59
2022-11-17T10:25:58.844Z,2.54
2022-11-17T10:29:12.972Z,2.57
2022-11-17T10:32:15.337Z,2.55
2022-11-17T10:35:28.111Z,2.53
2022-11-17T10:38:30.768Z,2.50
2022-11-17T10:41:44.120Z,2.53
2022-11-17T10:44:49.000Z,2.52
2022-11-17T10:47:50.825Z,2.54
2022-11-17T10:51:01.046Z,2.58
2022-11-17T10:54:06.945Z,2.57
2022-11-17T10:57:14.136Z,2.61
2022-11-17T11:00:36.173Z,2.61
2022-11-17T11:03:48.375Z,2.61
2022-11-17T11:07:10.434Z,2.60
2022-11-17T11:10:32.320Z,2.55
2022-11-17T11:13:51.890Z,2.51
2022-11-17T11:16:54.818Z,2.49
2022-11-17T11:19:56.441Z,2.50
2022-11-17T11:23:03.513Z,2.49
2022-11-17T11:26:22.621Z,2.50
2022-11-17T11:29:42.770Z,2.53
2022-11-17T11:33:05.579Z,2.55
2022-11-17T11:36:06.988Z,2.64
2022-11-17T11:39:31.552Z,2.67
2022-11-17T11:42:47.022Z,2.69
2022-11-17T11:45:53.849Z,2.73
2022-11-17T11:49:02.368Z,2.72
2022-11-17T11:52:10.179Z,2.75
2022-11-17T11:55:24.095Z,2.79
2022-11-17T11:58:25.453Z,2.82
2022-11-17T12:01:31.843Z,2.82
2022-11-17T12:04:36.151Z,2.80
2022-11-17T12:07:48.123Z,2.78
2022-11-17T12:10:57.986Z,2.76
2022-11-17T12:14:01.947Z,2.73
2022-11-17T12:17:17.600Z,2.73
2022-11-17T12:20:31.249Z,2.77
2022-11-17T12:23:52.866Z,2.72
2022-11-17T12:27:32.571Z,2.77
2022-11-17T12:30:33.861Z,2.81
2022-11-17T12:33:53.675Z,2.82
2022-11-17T12:37:20.636Z,2.80
2022-11-17T12:40:53.043Z,2.81
2022-11-17T12:44:46.496Z,2.84
2022-11-17T12:47:59.465Z,2.86
2022-11-17T12:51:27.293Z,2.93
2022-11-17T12:54:47.449Z,2.90
2022-11-17T12:57:57.857Z,2.90
2022-11-17T13:01:42.116Z,2.90
2022-11-17T13:04:49.430Z,2.87
2022-11-17T13:08:09.136Z,2.87
2022-11-17T13:11:14.941Z,2.87
2022-11-17T13:14:17.106Z,2.79
2022-11-17T13:17:20.390Z,2.76
2022-11-17T13:20:29.529Z,2.70
2022-11-17T13:23:32.798Z,2.67
2022-11-17T13:26:34.167Z,2.65
2022-11-17T13:29:35.591Z,2.63
2022-11-17T13:32:39.303Z,2.62
2022-11-17T13:35:40.654Z,2.60
2022-11-17T13:38:53.327Z,2.55
2022-11-17T13:41:56.579Z,2.49
2022-11-17T13:45:01.686Z,2.49
2022-11-17T13:48:03.091Z,2.48
2022-11-17T13:51:19.918Z,2.51
2022-11-17T13:54:21.319Z,2.48
2022-11-17T13:57:27.085Z,2.50
2022-11-17T14:00:29.919Z,2.49
2022-11-17T14:03:32.639Z,2.49
2022-11-17T14:06:52.791Z,2.48
2022-11-17T14:10:13.392Z,2.46
2022-11-17T14:13:23.697Z,2.48
2022-11-17T14:16:38.134Z,2.49
2022-11-17T14:19:40.560Z,2.51
2022-11-17T14:23:07.632Z,2.49
2022-11-17T14:26:21.868Z,2.46
2022-11-17T14:29:23.453Z,2.40
2022-11-17T14:32:24.919Z,2.43
2022-11-17T14:35:26.247Z,2.38
2022-11-17T14:38:27.820Z,2.36
2022-11-17T14:41:29.369Z,2.34
2022-11-17T14:44:30.709Z,2.34
2022-11-17T14:47:32.060Z,2.32
2022-11-17T14:50:33.665Z,2.31
2022-11-17T14:53:39.206Z,2.29
2022-11-17T14:56:43.170Z,2.27
2022-11-17T14:59:44.554Z,2.23
2022-11-17T15:02:46.124Z,2.25
2022-11-17T15:05:47.490Z,2.23
2022-11-17T15:09:00.508Z,2.20
2022-11-17T15:12:01.860Z,2.21
2022-11-17T15:15:04.123Z,2.20
2022-11-17T15:18:05.603Z,2.19
2022-11-17T15:21:09.706Z,2.18
2022-11-17T15:24:11.091Z,2.16
2022-11-17T15:27:12.990Z,2.14
2022-11-17T15:30:14.650Z,2.13
2022-11-17T15:33:16.198Z,2.14
2022-11-17T15:36:19.629Z,2.14
2022-11-17T15:39:20.995Z,2.12
2022-11-17T15:42:22.372Z,2.13
2022-11-17T15:45:23.751Z,2.14
2022-11-17T15:48:25.128Z,2.15
2022-11-17T15:51:27.701Z,2.16
2022-11-17T15:54:29.098Z,2.15
2022-11-17T15:57:30.547Z,2.14
2022-11-17T16:00:33.352Z,2.14
2022-11-17T16:03:34.941Z,2.13
2022-11-17T16:06:38.176Z,2.15
2022-11-17T16:09:39.569Z,2.11
2022-11-17T16:12:40.977Z,2.13
2022-11-17T16:15:42.298Z,2.14
2022-11-17T16:18:43.682Z,2.13
2022-11-17T16:21:45.069Z,2.14
2022-11-17T16:24:46.450Z,2.14
2022-11-17T16:27:47.810Z,2.15
2022-11-17T16:30:49.174Z,2.16
2022-11-17T16:33:56.243Z,2.17
2022-11-17T16:36:57.626Z,2.16
2022-11-17T16:39:59.002Z,2.15
2022-11-17T16:43:00.437Z,2.15
2022-11-17T16:46:21.027Z,2.16
2022-11-17T16:49:22.448Z,2.16
2022-11-17T16:52:23.802Z,2.17
2022-11-17T16:55:25.115Z,2.17
2022-11-17T16:58:26.451Z,2.17
2022-11-17T17:01:30.036Z,2.17
2022-11-17T17:04:31.584Z,2.19
2022-11-17T17:07:33.067Z,2.20
2022-11-17T17:10:34.515Z,2.17
2022-11-17T17:13:36.112Z,2.18
2022-11-17T17:16:37.920Z,2.17
2022-11-17T17:19:39.296Z,2.18
2022-11-17T17:22:40.649Z,2.17
2022-11-17T17:25:41.996Z,2.15
2022-11-17T17:28:45.589Z,2.19
2022-11-17T17:31:46.902Z,2.21
2022-11-17T17:34:48.236Z,2.21
2022-11-17T17:37:49.606Z,2.21
2022-11-17T17:40:50.952Z,2.24
2022-11-17T17:43:57.929Z,2.26
2022-11-17T17:46:59.328Z,2.26
2022-11-17T17:50:00.693Z,2.27
2022-11-17T17:53:02.028Z,2.28
2022-11-17T17:56:06.314Z,2.30
2022-11-17T17:59:07.804Z,2.29
2022-11-17T18:02:09.669Z,2.29
2022-11-17T18:05:11.011Z,2.25
2022-11-17T18:08:12.606Z,2.23
2022-11-17T18:11:17.149Z,2.24
2022-11-17T18:14:20.051Z,2.22
2022-11-17T18:17:21.433Z,2.22
2022-11-17T18:20:22.887Z,2.21
2022-11-17T18:23:24.278Z,2.23
2022-11-17T18:26:29.347Z,2.22
2022-11-17T18:29:30.821Z,2.24
2022-11-17T18:32:32.204Z,2.25
2022-11-17T18:35:35.107Z,2.26
2022-11-17T18:38:37.295Z,2.22
2022-11-17T18:41:38.627Z,2.23
2022-11-17T18:44:40.059Z,2.22
2022-11-17T18:47:41.585Z,2.25
2022-11-17T18:51:17.278Z,2.23
2022-11-17T18:54:07.462Z,2.24
2022-11-17T18:57:08.882Z,2.25
2022-11-17T19:00:10.797Z,2.27
2022-11-17T19:03:12.208Z,2.25
2022-11-17T19:06:15.803Z,2.24
2022-11-17T19:09:17.439Z,2.26
2022-11-17T19:12:19.132Z,2.25
2022-11-17T19:15:20.512Z,2.25
2022-11-17T19:18:21.943Z,2.25
2022-11-17T19:21:26.061Z,2.23
2022-11-17T19:24:27.410Z,2.22
2022-11-17T19:27:28.745Z,2.20
2022-11-17T19:30:30.213Z,2.18
2022-11-17T19:33:33.217Z,2.17
2022-11-17T19:36:34.898Z,2.13
2022-11-17T19:39:36.237Z,2.11
2022-11-17T19:42:37.605Z,2.06
2022-11-17T19:45:38.978Z,2.02
2022-11-17T19:48:41.161Z,2.01
2022-11-17T19:51:42.554Z,1.99
2022-11-17T19:54:43.946Z,1.97
2022-11-17T19:57:45.334Z,1.95
2022-11-17T20:00:47.880Z,1.95
2022-11-17T20:03:49.762Z,1.93
2022-11-17T20:06:51.243Z,1.92
2022-11-17T20:09:52.638Z,1.93
2022-11-17T20:12:54.039Z,1.91
2022-11-17T20:15:56.735Z,1.85
2022-11-17T20:19:00.568Z,1.80
2022-11-17T20:22:01.934Z,1.73
2022-11-17T20:25:03.897Z,1.75
2022-11-17T20:28:05.311Z,1.70
2022-11-17T20:31:14.750Z,1.72
2022-11-17T20:34:16.220Z,1.69
2022-11-17T20:37:17.611Z,1.67
2022-11-17T20:40:18.963Z,1.66
2022-11-17T20:43:20.401Z,1.69
2022-11-17T20:46:23.234Z,1.70
2022-11-17T20:49:24.832Z,1.67
2022-11-17T20:52:26.156Z,1.66
2022-11-17T20:55:27.498Z,1.66
2022-11-17T20:58:29.394Z,1.62
2022-11-17T21:01:30.821Z,1.58
2022-11-17T21:04:32.241Z,1.58
2022-11-17T21:07:33.640Z,1.59
2022-11-17T21:10:35.568Z,1.59
2022-11-17T21:13:37.775Z,1.58
2022-11-17T21:16:41.772Z,1.58
2022-11-17T21:19:43.148Z,1.57
2022-11-17T21:22:44.494Z,1.60
2022-11-17T21:25:45.870Z,1.60
2022-11-17T21:28:47.257Z,1.56
2022-11-17T21:31:48.597Z,1.51
2022-11-17T21:34:50.067Z,1.58
2022-11-17T21:37:51.858Z,1.56
2022-11-17T21:40:53.224Z,1.51
2022-11-17T21:43:57.978Z,1.52
2022-11-17T21:46:59.377Z,1.50
2022-11-17T21:50:00.778Z,1.51
2022-11-17T21:53:02.157Z,1.49
2022-11-17T21:56:05.671Z,1.48
2022-11-17T21:59:12.088Z,1.49
2022-11-17T22:02:13.462Z,1.48
2022-11-17T22:05:14.891Z,1.45
2022-11-17T22:08:16.257Z,1.45
2022-11-17T22:11:20.524Z,1.50
2022-11-17T22:14:22.491Z,1.45
2022-11-17T22:17:23.863Z,1.46
2022-11-17T22:20:25.280Z,1.45
2022-11-17T22:23:28.073Z,1.44
2022-11-17T22:26:29.588Z,1.42
2022-11-17T22:29:30.978Z,1.37
2022-11-17T22:32:32.324Z,1.39
2022-11-17T22:35:33.717Z,1.37
2022-11-17T22:38:35.091Z,1.34
2022-11-17T22:41:36.772Z,1.29
2022-11-17T22:44:38.153Z,1.29
2022-11-17T22:47:39.573Z,1.27
2022-11-17T22:50:40.934Z,1.30
2022-11-17T22:53:42.314Z,1.29
2022-11-17T22:56:43.665Z,1.29
2022-11-17T22:59:45.058Z,1.32
2022-11-17T23:02:46.481Z,1.24
2022-11-17T23:05:47.959Z,1.28
2022-11-17T23:08:49.715Z,1.24
2022-11-17T23:11:51.182Z,1.25
2022-11-17T23:14:52.532Z,1.24
2022-11-17T23:17:54.525Z,1.24
2022-11-17T23:20:55.851Z,1.22
2022-11-17T23:23:57.268Z,1.23
2022-11-17T23:26:58.597Z,1.26
2022-11-17T23:30:00.024Z,1.27
2022-11-17T23:33:01.418Z,1.30
2022-11-17T23:36:04.532Z,1.30
2022-11-17T23:39:06.068Z,1.32
2022-11-17T23:42:07.441Z,1.32
2022-11-17T23:45:09.636Z,1.30
2022-11-17T23:48:11.006Z,1.34
2022-11-17T23:51:19.841Z,1.35
2022-11-17T23:54:21.174Z,1.30
2022-11-17T23:57:22.509Z,1.32
